createdAt,value
2023-01-25T00:01:35.672Z,12.82
2023-01-25T00:04:02.808Z,13.90
2023-01-25T00:06:29.858Z,13.15
2023-01-25T00:08:56.880Z,11.73
2023-01-25T00:11:23.964Z,12.15
2023-01-25T00:13:53.575Z,14.63
2023-01-25T00:16:20.724Z,16.93
2023-01-25T00:18:48.588Z,17.30
2023-01-25T00:21:16.475Z,14.75
2023-01-25T00:23:43.573Z,14.00
2023-01-25T00:26:10.619Z,15.77
2023-01-25T00:28:37.743Z,13.45
2023-01-25T00:31:42.371Z,13.68
2023-01-25T00:34:29.334Z,12.93
2023-01-25T00:37:02.955Z,13.45
2023-01-25T00:39:30.037Z,12.52
2023-01-25T00:41:57.103Z,14.10
2023-01-25T00:44:24.148Z,12.80
2023-01-25T00:46:51.178Z,13.25
2023-01-25T00:49:25.036Z,12.48
2023-01-25T00:51:52.278Z,13.35
2023-01-25T00:54:19.401Z,13.18
2023-01-25T00:56:46.664Z,13.40
2023-01-25T00:59:14.041Z,13.10
2023-01-25T01:01:41.235Z,13.10
2023-01-25T01:04:08.421Z,13.73
2023-01-25T01:07:13.406Z,14.73
2023-01-25T01:09:40.768Z,13.90
2023-01-25T01:12:07.898Z,14.68
2023-01-25T01:15:12.404Z,15.15
2023-01-25T01:18:16.926Z,14.82
2023-01-25T01:20:49.106Z,16.00
2023-01-25T01:23:16.212Z,15.50
2023-01-25T01:25:43.260Z,15.30
2023-01-25T01:28:10.329Z,14.85
2023-01-25T01:30:37.554Z,15.93
2023-01-25T01:33:04.686Z,14.40
2023-01-25T01:35:31.901Z,14.80
2023-01-25T01:37:59.105Z,14.90
2023-01-25T01:40:26.457Z,15.15
2023-01-25T01:42:57.621Z,15.05
2023-01-25T01:45:43.569Z,13.98
2023-01-25T01:48:25.729Z,13.10
2023-01-25T01:50:54.335Z,13.70
2023-01-25T01:53:21.975Z,13.23
2023-01-25T01:55:49.084Z,13.32
2023-01-25T01:58:16.114Z,14.35
2023-01-25T02:00:43.197Z,14.65
2023-01-25T02:03:10.408Z,14.10
2023-01-25T02:05:41.435Z,13.73
2023-01-25T02:08:08.734Z,15.50
2023-01-25T02:10:35.786Z,14.38
2023-01-25T02:13:02.867Z,13.95
2023-01-25T02:15:31.259Z,13.48
2023-01-25T02:17:58.287Z,14.07
2023-01-25T02:20:27.425Z,13.52
2023-01-25T02:23:00.555Z,14.23
2023-01-25T02:25:28.099Z,14.38
2023-01-25T02:27:59.701Z,14.25
2023-01-25T02:30:26.731Z,13.95
2023-01-25T02:32:53.772Z,14.48
2023-01-25T02:35:24.693Z,14.20
2023-01-25T02:37:51.816Z,13.00
2023-01-25T02:40:19.367Z,13.23
2023-01-25T02:42:46.515Z,12.50
2023-01-25T02:45:14.673Z,15.48
2023-01-25T02:47:41.725Z,12.82
2023-01-25T02:50:09.274Z,12.77
2023-01-25T02:52:36.331Z,15.02
2023-01-25T02:55:03.384Z,14.05
2023-01-25T02:57:30.439Z,13.63
2023-01-25T02:59:57.463Z,15.27
2023-01-25T03:02:24.674Z,15.23
2023-01-25T03:04:51.878Z,14.43
2023-01-25T03:07:18.902Z,14.40
2023-01-25T03:09:45.970Z,13.63
2023-01-25T03:12:12.975Z,13.05
2023-01-25T03:14:40.210Z,13.80
2023-01-25T03:17:07.233Z,13.90
2023-01-25T03:19:34.326Z,11.88
2023-01-25T03:22:01.441Z,12.60
2023-01-25T03:24:28.535Z,12.63
2023-01-25T03:27:10.786Z,12.68
2023-01-25T03:29:38.178Z,14.32
2023-01-25T03:32:14.520Z,13.82
2023-01-25T03:34:41.700Z,13.27
2023-01-25T03:37:08.827Z,13.18
2023-01-25T03:39:35.872Z,13.00
2023-01-25T03:42:02.956Z,12.60
2023-01-25T03:44:30.056Z,12.20
2023-01-25T03:46:57.249Z,11.88
2023-01-25T03:49:24.423Z,12.85
2023-01-25T03:51:51.531Z,12.68
2023-01-25T03:54:18.616Z,12.70
2023-01-25T03:56:45.707Z,12.85
2023-01-25T03:59:12.866Z,13.52
2023-01-25T04:01:39.969Z,12.95
2023-01-25T04:04:07.096Z,13.02
2023-01-25T04:06:34.206Z,12.18
2023-01-25T04:09:01.319Z,12.95
2023-01-25T04:11:28.465Z,11.98
2023-01-25T04:13:55.517Z,12.88
2023-01-25T04:16:22.626Z,11.25
2023-01-25T04:18:49.705Z,10.95
2023-01-25T04:21:16.808Z,9.18
2023-01-25T04:23:43.943Z,10.57
2023-01-25T04:26:12.354Z,10.02
2023-01-25T04:28:39.571Z,10.88
2023-01-25T04:31:06.838Z,11.82
2023-01-25T04:33:34.004Z,11.90
2023-01-25T04:36:01.227Z,10.98
2023-01-25T04:38:28.537Z,12.45
2023-01-25T04:40:55.595Z,13.15
2023-01-25T04:43:22.767Z,12.10
2023-01-25T04:45:49.883Z,12.07
2023-01-25T04:48:17.043Z,12.15
2023-01-25T04:50:44.497Z,12.85
2023-01-25T04:53:11.989Z,12.85
2023-01-25T04:55:39.197Z,14.07
2023-01-25T04:58:06.322Z,13.05
2023-01-25T05:00:33.459Z,13.57
2023-01-25T05:03:00.518Z,14.10
2023-01-25T05:05:27.680Z,13.38
2023-01-25T05:07:54.718Z,13.68
2023-01-25T05:10:21.892Z,13.20
2023-01-25T05:12:48.979Z,13.23
2023-01-25T05:15:16.110Z,13.10
2023-01-25T05:17:43.195Z,13.65
2023-01-25T05:20:10.704Z,12.25
2023-01-25T05:22:37.851Z,13.85
2023-01-25T05:25:06.430Z,13.60
2023-01-25T05:27:33.537Z,13.63
2023-01-25T05:30:00.661Z,14.52
2023-01-25T05:32:27.733Z,14.25
2023-01-25T05:34:54.819Z,13.10
2023-01-25T05:37:22.048Z,12.32
2023-01-25T05:39:49.441Z,14.10
2023-01-25T05:42:17.360Z,13.07
2023-01-25T05:44:47.088Z,13.63
2023-01-25T05:47:15.228Z,13.57
2023-01-25T05:49:42.598Z,13.73
2023-01-25T05:52:15.960Z,12.70
2023-01-25T05:54:43.077Z,12.70
2023-01-25T05:57:10.218Z,13.95
2023-01-25T05:59:37.351Z,15.45
2023-01-25T06:02:04.481Z,15.75
2023-01-25T06:04:31.557Z,14.18
2023-01-25T06:06:58.676Z,14.60
2023-01-25T06:09:27.052Z,13.77
2023-01-25T06:11:54.202Z,13.52
2023-01-25T06:14:21.331Z,13.20
2023-01-25T06:16:48.585Z,12.68
2023-01-25T06:19:15.723Z,14.45
2023-01-25T06:21:42.816Z,13.50
2023-01-25T06:24:09.922Z,14.75
2023-01-25T06:26:36.995Z,14.32
2023-01-25T06:29:06.357Z,15.05
2023-01-25T06:31:33.592Z,14.00
2023-01-25T06:34:04.393Z,14.70
2023-01-25T06:36:31.521Z,15.85
2023-01-25T06:38:58.615Z,15.38
2023-01-25T06:41:25.891Z,14.73
2023-01-25T06:43:53.129Z,14.25
2023-01-25T06:46:20.309Z,14.15
2023-01-25T06:48:47.506Z,14.57
2023-01-25T06:51:14.933Z,14.77
2023-01-25T06:53:43.419Z,13.95
2023-01-25T06:56:12.018Z,13.18
2023-01-25T06:58:39.440Z,13.40
2023-01-25T07:01:07.639Z,13.57
2023-01-25T07:03:34.873Z,14.13
2023-01-25T07:06:02.501Z,13.10
2023-01-25T07:08:29.674Z,12.32
2023-01-25T07:10:57.075Z,12.90
2023-01-25T07:13:24.638Z,13.48
2023-01-25T07:15:58.210Z,13.07
2023-01-25T07:18:25.427Z,13.82
2023-01-25T07:20:52.597Z,14.63
2023-01-25T07:23:19.866Z,14.02
2023-01-25T07:25:50.454Z,14.27
2023-01-25T07:30:44.609Z,13.65
2023-01-25T07:33:11.736Z,13.52
2023-01-25T07:35:38.801Z,14.73
2023-01-25T07:38:05.968Z,14.40
2023-01-25T07:40:33.035Z,15.85
2023-01-25T07:43:00.269Z,14.90
2023-01-25T07:45:30.287Z,14.77
2023-01-25T07:48:00.523Z,13.55
2023-01-25T07:50:28.040Z,13.55
2023-01-25T07:52:55.355Z,14.18
2023-01-25T07:55:22.453Z,13.85
2023-01-25T07:57:49.727Z,15.30
2023-01-25T08:00:16.953Z,15.55
2023-01-25T08:02:44.001Z,15.80
2023-01-25T08:05:11.445Z,16.45
2023-01-25T08:07:38.701Z,15.45
2023-01-25T08:10:06.988Z,14.75
2023-01-25T08:12:34.319Z,14.13
2023-01-25T08:15:01.554Z,14.68
2023-01-25T08:17:31.619Z,15.70
2023-01-25T08:19:59.575Z,14.02
2023-01-25T08:22:26.980Z,14.85
2023-01-25T08:24:54.045Z,14.60
2023-01-25T08:27:21.292Z,14.05
2023-01-25T08:29:50.446Z,12.30
2023-01-25T08:32:17.664Z,13.40
2023-01-25T08:34:44.783Z,12.57
2023-01-25T08:37:11.816Z,12.35
2023-01-25T08:39:38.910Z,12.63
2023-01-25T08:42:06.649Z,13.38
2023-01-25T08:44:33.779Z,15.40
2023-01-25T08:47:00.955Z,13.65
2023-01-25T08:49:28.101Z,13.95
2023-01-25T08:51:55.191Z,12.77
2023-01-25T08:54:22.303Z,13.30
2023-01-25T08:56:49.430Z,13.02
2023-01-25T08:59:16.606Z,11.65
2023-01-25T09:01:43.717Z,12.45
2023-01-25T09:04:10.881Z,11.77
2023-01-25T09:06:38.212Z,11.63
2023-01-25T09:09:05.475Z,14.52
2023-01-25T09:11:33.709Z,17.05
2023-01-25T09:14:00.705Z,15.40
2023-01-25T09:16:30.647Z,14.35
2023-01-25T09:18:58.218Z,12.00
2023-01-25T09:21:25.358Z,13.02
2023-01-25T09:24:05.722Z,12.23
2023-01-25T09:26:33.616Z,12.40
2023-01-25T09:29:00.795Z,12.73
2023-01-25T09:31:29.406Z,12.15
2023-01-25T09:33:58.042Z,11.85
2023-01-25T09:36:25.192Z,11.88
2023-01-25T09:38:52.307Z,11.77
2023-01-25T09:41:38.279Z,12.68
2023-01-25T09:44:20.691Z,12.20
2023-01-25T09:46:54.348Z,11.68
2023-01-25T09:49:21.464Z,11.45
2023-01-25T09:52:11.282Z,12.32
2023-01-25T09:54:46.603Z,12.68
2023-01-25T09:57:20.915Z,12.70
2023-01-25T09:59:48.464Z,12.23
2023-01-25T10:02:29.283Z,12.75
2023-01-25T10:04:56.927Z,12.48
2023-01-25T10:07:32.141Z,12.38
2023-01-25T10:10:06.479Z,12.60
2023-01-25T10:12:35.863Z,11.43
2023-01-25T10:15:02.974Z,12.10
2023-01-25T10:17:37.894Z,12.18
2023-01-25T10:20:05.034Z,12.27
2023-01-25T10:22:35.757Z,11.68
2023-01-25T10:25:04.235Z,12.10
2023-01-25T10:27:43.526Z,11.98
2023-01-25T10:30:32.986Z,12.43
2023-01-25T10:33:01.205Z,12.23
2023-01-25T10:35:36.136Z,12.48
2023-01-25T10:38:06.270Z,12.73
2023-01-25T10:40:36.427Z,12.15
2023-01-25T10:43:04.278Z,12.80
2023-01-25T10:45:31.349Z,11.90
2023-01-25T10:48:03.415Z,11.73
2023-01-25T10:50:42.816Z,12.90
2023-01-25T10:53:28.040Z,12.98
2023-01-25T10:56:02.596Z,12.82
2023-01-25T10:58:30.354Z,12.20
2023-01-25T11:00:57.419Z,11.65
2023-01-25T11:03:24.549Z,11.10
2023-01-25T11:05:55.375Z,11.68
2023-01-25T11:08:25.944Z,11.60
2023-01-25T11:13:21.203Z,12.30
2023-01-25T11:15:52.895Z,12.30
2023-01-25T11:18:33.564Z,12.30
2023-01-25T11:21:07.676Z,12.60
2023-01-25T11:23:34.811Z,13.05
2023-01-25T11:26:11.431Z,11.90
2023-01-25T11:28:38.514Z,12.63
2023-01-25T11:31:06.893Z,11.95
2023-01-25T11:33:33.976Z,13.07
2023-01-25T11:36:11.491Z,12.27
2023-01-25T11:38:38.771Z,12.45
2023-01-25T11:41:21.966Z,13.25
2023-01-25T11:44:07.843Z,14.48
2023-01-25T11:46:39.714Z,14.13
2023-01-25T11:49:11.786Z,11.52
2023-01-25T11:51:41.948Z,13.30
2023-01-25T11:54:09.011Z,13.00
2023-01-25T11:56:40.955Z,13.60
2023-01-25T11:59:08.038Z,13.75
2023-01-25T12:01:38.075Z,11.60
2023-01-25T12:04:23.635Z,12.73
2023-01-25T12:06:54.020Z,11.95
2023-01-25T12:09:27.324Z,12.15
2023-01-25T12:12:06.674Z,12.10
2023-01-25T12:14:40.443Z,12.63
2023-01-25T12:17:12.667Z,13.75
2023-01-25T12:19:42.289Z,12.52
2023-01-25T12:22:12.835Z,12.97
2023-01-25T12:27:12.838Z,12.50
2023-01-25T12:29:41.328Z,12.68
2023-01-25T12:32:37.876Z,11.75
2023-01-25T12:35:25.346Z,12.43
2023-01-25T12:37:53.880Z,11.13
2023-01-25T12:40:41.269Z,13.25
2023-01-25T12:43:10.461Z,13.50
2023-01-25T12:45:37.766Z,13.88
2023-01-25T12:48:24.590Z,14.05
2023-01-25T12:50:58.537Z,14.43
2023-01-25T12:53:25.666Z,13.77
2023-01-25T12:55:52.862Z,13.65
2023-01-25T12:58:32.762Z,13.73
2023-01-25T13:12:11.368Z,15.88
2023-01-25T13:14:38.830Z,13.85
2023-01-25T13:17:13.243Z,14.50
2023-01-25T13:19:44.327Z,15.48
2023-01-25T13:22:12.091Z,16.33
2023-01-25T13:24:57.931Z,14.68
2023-01-25T13:27:25.880Z,15.13
2023-01-25T13:29:56.896Z,16.83
2023-01-25T13:32:27.514Z,16.70
2023-01-25T13:34:54.691Z,15.98
2023-01-25T13:37:21.903Z,16.35
2023-01-25T13:39:48.973Z,17.33
2023-01-25T13:42:57.459Z,16.13
2023-01-25T13:45:24.489Z,16.83
2023-01-25T13:48:05.119Z,16.58
2023-01-25T13:53:02.214Z,16.42
2023-01-25T13:55:30.171Z,16.88
2023-01-25T13:58:15.856Z,17.17
2023-01-25T14:00:49.968Z,16.10
2023-01-25T14:03:17.089Z,17.40
2023-01-25T14:05:49.854Z,16.83
2023-01-25T14:08:17.935Z,18.45
2023-01-25T14:10:45.038Z,19.42
2023-01-25T14:13:14.713Z,23.85
2023-01-25T14:15:41.751Z,18.17
2023-01-25T14:18:14.140Z,17.52
2023-01-25T14:20:44.313Z,16.67
2023-01-25T14:23:21.478Z,18.38
2023-01-25T14:25:48.699Z,17.88
2023-01-25T14:28:15.908Z,17.67
2023-01-25T14:30:43.053Z,17.00
2023-01-25T14:33:17.309Z,17.35
2023-01-25T14:35:55.662Z,17.35
2023-01-25T14:38:28.692Z,17.10
2023-01-25T14:40:57.309Z,17.33
2023-01-25T14:43:24.368Z,18.17
2023-01-25T14:45:51.523Z,16.95
2023-01-25T14:48:37.326Z,18.25
2023-01-25T14:51:18.198Z,16.23
2023-01-25T14:53:46.830Z,16.20
2023-01-25T14:56:17.672Z,17.67
2023-01-25T14:58:45.393Z,18.27
2023-01-25T15:01:15.932Z,17.67
2023-01-25T15:03:44.730Z,18.45
2023-01-25T15:06:11.872Z,17.67
2023-01-25T15:08:39.142Z,19.13
2023-01-25T15:11:24.617Z,18.38
2023-01-25T15:14:01.389Z,18.75
2023-01-25T15:16:35.087Z,18.73
2023-01-25T15:19:02.803Z,19.73
2023-01-25T15:21:33.140Z,18.65
2023-01-25T15:24:06.385Z,17.33
2023-01-25T15:26:34.668Z,19.20
2023-01-25T15:29:02.585Z,18.67
2023-01-25T15:31:33.573Z,18.35
2023-01-25T15:34:01.388Z,18.90
2023-01-25T15:36:28.892Z,17.35
2023-01-25T15:38:56.002Z,19.27
2023-01-25T15:41:23.126Z,18.02
2023-01-25T15:43:50.290Z,18.00
2023-01-25T15:46:18.448Z,17.60
2023-01-25T15:48:45.890Z,18.92
2023-01-25T15:51:13.228Z,19.23
2023-01-25T15:53:40.399Z,19.05
2023-01-25T15:56:08.685Z,19.35
2023-01-25T15:58:39.400Z,19.67
2023-01-25T16:01:06.560Z,19.63
2023-01-25T16:03:33.679Z,18.98
2023-01-25T16:06:01.993Z,19.13
2023-01-25T16:08:29.144Z,20.23
2023-01-25T16:10:56.267Z,20.23
2023-01-25T16:13:24.414Z,20.33
2023-01-25T16:15:54.845Z,20.75
2023-01-25T16:18:21.889Z,19.85
2023-01-25T16:20:49.043Z,20.38
2023-01-25T16:23:16.097Z,19.80
2023-01-25T16:25:43.256Z,19.42
2023-01-25T16:28:14.154Z,18.77
2023-01-25T16:30:41.333Z,19.73
2023-01-25T16:33:08.402Z,19.55
2023-01-25T16:35:35.415Z,19.67
2023-01-25T16:38:02.457Z,19.55
2023-01-25T16:40:32.452Z,19.23
2023-01-25T16:42:59.524Z,19.90
2023-01-25T16:45:26.875Z,19.42
2023-01-25T16:47:54.022Z,19.98
2023-01-25T16:50:21.817Z,19.65
2023-01-25T16:52:51.728Z,20.52
2023-01-25T16:55:19.317Z,20.13
2023-01-25T16:57:49.407Z,18.88
2023-01-25T17:00:16.587Z,19.65
2023-01-25T17:02:53.414Z,19.20
2023-01-25T17:05:27.668Z,19.45
2023-01-25T17:07:54.783Z,20.25
2023-01-25T17:10:21.843Z,20.30
2023-01-25T17:12:49.752Z,20.23
2023-01-25T17:15:20.445Z,20.88
2023-01-25T17:17:47.514Z,21.27
2023-01-25T17:20:14.568Z,22.75
2023-01-25T17:22:42.593Z,22.98
2023-01-25T17:25:09.773Z,22.85
2023-01-25T17:27:36.850Z,22.55
2023-01-25T17:30:04.020Z,22.17
2023-01-25T17:32:31.120Z,21.15
2023-01-25T17:34:59.136Z,20.50
2023-01-25T17:37:26.445Z,21.70
2023-01-25T17:39:53.717Z,22.50
2023-01-25T17:42:22.095Z,22.77
2023-01-25T17:44:49.205Z,20.85
2023-01-25T17:47:16.282Z,18.83
2023-01-25T17:49:43.365Z,18.67
2023-01-25T17:52:10.389Z,19.45
2023-01-25T17:54:37.525Z,20.90
2023-01-25T17:57:04.561Z,20.27
2023-01-25T17:59:31.599Z,18.88
2023-01-25T18:01:58.785Z,20.17
2023-01-25T18:04:25.874Z,18.10
2023-01-25T18:06:53.113Z,18.65
2023-01-25T18:09:20.236Z,18.20
2023-01-25T18:11:48.734Z,16.88
2023-01-25T18:14:16.809Z,17.00
2023-01-25T18:16:44.805Z,17.33
2023-01-25T18:19:11.958Z,18.55
2023-01-25T18:21:39.118Z,18.63
2023-01-25T18:24:07.431Z,17.33
2023-01-25T18:26:37.021Z,18.33
2023-01-25T18:29:10.285Z,18.93
2023-01-25T18:31:37.611Z,19.10
2023-01-25T18:34:04.961Z,18.88
2023-01-25T18:36:32.097Z,19.15
2023-01-25T18:39:00.283Z,17.50
2023-01-25T18:41:27.357Z,18.25
2023-01-25T18:43:55.837Z,18.60
2023-01-25T18:46:22.971Z,16.55
2023-01-25T18:48:50.969Z,16.48
2023-01-25T18:51:18.053Z,17.83
2023-01-25T18:53:47.226Z,17.35
2023-01-25T18:56:15.155Z,17.05
2023-01-25T18:58:42.271Z,18.35
2023-01-25T19:01:16.167Z,18.42
2023-01-25T19:03:43.408Z,18.38
2023-01-25T19:06:10.532Z,14.75
2023-01-25T19:08:41.511Z,16.38
2023-01-25T19:11:12.573Z,15.50
2023-01-25T19:13:39.788Z,16.33
2023-01-25T19:16:13.623Z,16.35
2023-01-25T19:18:44.530Z,16.60
2023-01-25T19:21:11.635Z,16.30
2023-01-25T19:23:39.092Z,16.75
2023-01-25T19:26:06.648Z,18.17
2023-01-25T19:28:36.903Z,16.33
2023-01-25T19:31:10.787Z,15.75
2023-01-25T19:33:37.931Z,14.27
2023-01-25T19:36:06.421Z,15.13
2023-01-25T19:38:33.889Z,15.40
2023-01-25T19:41:07.591Z,15.32
2023-01-25T19:43:34.861Z,15.80
2023-01-25T19:46:08.411Z,15.93
2023-01-25T19:48:35.858Z,13.93
2023-01-25T19:51:13.559Z,15.63
2023-01-25T19:53:41.337Z,15.85
2023-01-25T19:56:09.352Z,16.77
2023-01-25T19:58:36.440Z,15.57
2023-01-25T20:01:09.341Z,15.13
2023-01-25T20:03:36.795Z,15.88
2023-01-25T20:06:05.026Z,13.52
2023-01-25T20:08:32.199Z,16.05
2023-01-25T20:11:00.022Z,16.80
2023-01-25T20:13:27.255Z,17.58
2023-01-25T20:15:54.358Z,15.90
2023-01-25T20:18:21.454Z,15.82
2023-01-25T20:20:58.408Z,17.02
2023-01-25T20:23:25.584Z,14.95
2023-01-25T20:25:58.977Z,16.65
2023-01-25T20:28:26.525Z,16.90
2023-01-25T20:30:53.854Z,18.08
2023-01-25T20:33:21.159Z,15.85
2023-01-25T20:35:50.008Z,17.33
2023-01-25T20:38:17.134Z,16.75
2023-01-25T20:40:44.303Z,14.98
2023-01-25T20:43:11.444Z,16.52
2023-01-25T20:45:38.515Z,18.58
2023-01-25T20:48:05.638Z,16.05
2023-01-25T20:50:32.706Z,16.45
2023-01-25T20:52:59.767Z,15.80
2023-01-25T20:55:26.856Z,15.82
2023-01-25T20:57:54.500Z,16.05
2023-01-25T21:00:22.628Z,16.33
2023-01-25T21:02:49.679Z,15.23
2023-01-25T21:05:16.764Z,15.07
2023-01-25T21:07:43.823Z,16.08
2023-01-25T21:10:11.076Z,12.63
2023-01-25T21:12:38.463Z,10.10
2023-01-25T21:15:05.636Z,9.98
2023-01-25T21:17:32.679Z,11.13
2023-01-25T21:19:59.765Z,11.70
2023-01-25T21:22:28.910Z,11.80
2023-01-25T21:24:56.159Z,11.77
2023-01-25T21:27:24.926Z,15.35
2023-01-25T21:29:52.203Z,12.63
2023-01-25T21:32:19.232Z,13.45
2023-01-25T21:34:46.932Z,13.60
2023-01-25T21:37:13.986Z,13.07
2023-01-25T21:39:42.106Z,11.57
2023-01-25T21:42:09.212Z,11.20
2023-01-25T21:44:59.279Z,13.20
2023-01-25T21:47:31.036Z,13.07
2023-01-25T21:50:17.616Z,12.23
2023-01-25T21:52:44.756Z,12.40
2023-01-25T21:55:11.874Z,12.43
2023-01-25T21:57:46.148Z,12.57
2023-01-25T22:00:15.857Z,12.13
2023-01-25T22:02:43.583Z,10.90
2023-01-25T22:05:10.672Z,10.23
2023-01-25T22:07:37.850Z,11.30
2023-01-25T22:10:05.051Z,12.45
2023-01-25T22:12:32.203Z,11.95
2023-01-25T22:14:59.340Z,12.52
2023-01-25T22:17:26.513Z,11.88
2023-01-25T22:19:53.561Z,12.77
2023-01-25T22:22:20.683Z,12.15
2023-01-25T22:24:48.040Z,10.73
2023-01-25T22:27:17.875Z,9.63
2023-01-25T22:29:44.941Z,9.68
2023-01-25T22:32:12.021Z,9.95
2023-01-25T22:34:39.043Z,9.27
2023-01-25T22:37:06.136Z,9.88
2023-01-25T22:39:33.226Z,9.93
2023-01-25T22:42:00.235Z,9.55
2023-01-25T22:44:27.258Z,10.32
2023-01-25T22:46:54.539Z,9.70
2023-01-25T22:49:21.574Z,9.38
2023-01-25T22:51:48.615Z,10.98
2023-01-25T22:54:15.654Z,10.48
2023-01-25T22:56:42.732Z,9.63
2023-01-25T22:59:10.028Z,9.60
2023-01-25T23:01:37.639Z,9.73
2023-01-25T23:04:04.699Z,10.05
2023-01-25T23:06:34.136Z,10.40
2023-01-25T23:09:03.399Z,9.43
2023-01-25T23:11:32.301Z,8.32
2023-01-25T23:14:18.479Z,8.80
2023-01-25T23:16:45.571Z,8.52
2023-01-25T23:19:12.616Z,9.00
2023-01-25T23:21:39.803Z,9.43
2023-01-25T23:24:07.057Z,9.32
2023-01-25T23:26:37.473Z,9.77
2023-01-25T23:31:31.687Z,9.25
2023-01-25T23:33:59.356Z,10.35
2023-01-25T23:36:30.333Z,11.05
2023-01-25T23:38:57.547Z,10.63
2023-01-25T23:41:26.192Z,9.75
2023-01-25T23:43:53.284Z,9.57
2023-01-25T23:46:20.401Z,9.40
2023-01-25T23:48:47.593Z,8.63
2023-01-25T23:51:15.319Z,8.43
2023-01-25T23:53:42.706Z,9.48
2023-01-25T23:56:13.546Z,10.02
2023-01-25T23:58:40.626Z,10.82
